Time;durP1;ratioP1;P1;durP2;ratioP2;P2;SDS_P1;SDS_P2;PMS_P1;PMS_P2;Temp;Humidity;BMP_temperature;BMP_pressure;BME280_temperature;BME280_humidity;BME280_pressure;Samples;Min_cycle;Max_cycle;Signal;HPM_P1;HPM_P2
2022/04/11 00:00:39;;;;;;;8.95;1.95;;;4.30;99.90;;;;;;5052914;28;20017;-77
2022/04/11 00:03:04;;;;;;;6.07;2.17;;;4.30;99.90;;;;;;5053790;28;20021;-77
2022/04/11 00:05:30;;;;;;;6.72;1.90;;;4.30;99.90;;;;;;5047036;28;20037;-77
2022/04/11 00:07:56;;;;;;;3.95;1.40;;;4.30;99.90;;;;;;5052843;28;20099;-78
2022/04/11 00:10:21;;;;;;;9.43;1.80;;;4.20;99.90;;;;;;5047387;28;20032;-78
2022/04/11 00:12:47;;;;;;;10.10;1.90;;;4.20;99.90;;;;;;5039840;28;20017;-77
2022/04/11 00:15:13;;;;;;;8.32;1.90;;;4.20;99.90;;;;;;5056064;28;20111;-78
2022/04/11 00:17:38;;;;;;;7.70;2.30;;;4.10;99.90;;;;;;5054417;28;20119;-78
2022/04/11 00:20:05;;;;;;;5.97;1.80;;;4.20;99.90;;;;;;5070892;28;20105;-78
2022/04/11 00:22:40;;;;;;;4.90;1.70;;;4.20;99.90;;;;;;5087442;28;20025;-78
2022/04/11 00:25:06;;;;;;;6.18;1.85;;;4.10;99.90;;;;;;5088714;28;20064;-77
2022/04/11 00:27:32;;;;;;;5.82;1.60;;;4.10;99.90;;;;;;5036598;28;20033;-78
2022/04/11 00:29:57;;;;;;;8.23;1.98;;;4.10;99.90;;;;;;5036963;28;20028;-78
2022/04/11 00:32:23;;;;;;;5.72;1.83;;;4.00;99.90;;;;;;5054563;28;20052;-78
2022/04/11 00:34:49;;;;;;;5.97;1.95;;;4.10;99.90;;;;;;5054611;28;20657;-78
2022/04/11 00:37:14;;;;;;;3.65;1.60;;;4.10;99.90;;;;;;5069838;28;20024;-79
2022/04/11 00:39:40;;;;;;;11.32;1.92;;;4.10;99.90;;;;;;5054876;28;20036;-78
2022/04/11 00:42:16;;;;;;;6.72;1.90;;;4.10;99.90;;;;;;5054506;28;20032;-78
2022/04/11 00:44:42;;;;;;;10.38;2.50;;;4.00;99.90;;;;;;5087450;28;20419;-78
2022/04/11 00:47:08;;;;;;;6.40;1.95;;;3.90;99.90;;;;;;5038032;28;20044;-79
2022/04/11 00:49:34;;;;;;;4.10;1.65;;;3.90;99.90;;;;;;5055689;28;20028;-79
2022/04/11 00:51:59;;;;;;;6.13;1.90;;;3.90;99.90;;;;;;5027600;28;20031;-78
2022/04/11 00:54:31;;;;;;;7.35;2.25;;;3.90;99.90;;;;;;5055337;28;20036;-78
2022/04/11 00:56:57;;;;;;;6.68;1.80;;;3.90;99.90;;;;;;5046604;28;20028;-78
2022/04/11 00:59:25;;;;;;;4.68;1.58;;;3.90;99.90;;;;;;5055588;28;20032;-78
2022/04/11 01:01:50;;;;;;;6.45;2.00;;;3.80;99.90;;;;;;5050051;28;20068;-77
2022/04/11 01:04:26;;;;;;;6.85;2.00;;;3.80;99.90;;;;;;5037215;28;20029;-78
2022/04/11 01:06:56;;;;;;;7.53;1.77;;;3.80;99.90;;;;;;5055268;28;20111;-78
2022/04/11 01:09:26;;;;;;;8.30;1.80;;;3.80;99.90;;;;;;5038088;28;20025;-78
2022/04/11 01:11:52;;;;;;;6.50;2.20;;;3.80;99.90;;;;;;5053360;28;20063;-79
2022/04/11 01:14:19;;;;;;;5.50;1.63;;;3.80;99.90;;;;;;5071182;28;20025;-76
2022/04/11 01:16:51;;;;;;;9.05;2.10;;;3.80;99.90;;;;;;5089971;28;20052;-77
2022/04/11 01:19:17;;;;;;;9.65;2.17;;;3.80;99.90;;;;;;5077961;28;20029;-78
2022/04/11 01:21:44;;;;;;;4.93;1.85;;;3.80;99.90;;;;;;5054719;28;20028;-78
2022/04/11 01:24:09;;;;;;;9.75;2.35;;;3.80;99.90;;;;;;5042723;28;20135;-79
2022/04/11 01:26:36;;;;;;;5.70;2.15;;;3.70;99.90;;;;;;5072639;28;20053;-79
2022/04/11 01:29:04;;;;;;;9.70;2.30;;;3.80;99.90;;;;;;5058676;28;20016;-78
2022/04/11 01:31:30;;;;;;;5.45;1.90;;;3.80;99.90;;;;;;5042131;28;20115;-79
2022/04/11 01:33:57;;;;;;;7.25;2.00;;;3.80;99.90;;;;;;5056299;28;20028;-78
2022/04/11 01:36:22;;;;;;;6.50;1.73;;;3.70;99.90;;;;;;5073653;28;20037;-79
2022/04/11 01:38:48;;;;;;;11.32;2.20;;;3.80;99.90;;;;;;5043511;28;20024;-77
2022/04/11 01:41:14;;;;;;;4.93;1.75;;;3.80;99.90;;;;;;5050006;28;20029;-79
2022/04/11 01:43:39;;;;;;;7.15;1.88;;;3.70;99.90;;;;;;5074857;28;20064;-78
2022/04/11 01:46:05;;;;;;;5.97;1.70;;;3.70;99.90;;;;;;5075599;28;20071;-78
2022/04/11 01:48:31;;;;;;;6.07;2.30;;;3.70;99.90;;;;;;5041209;28;20051;-79
2022/04/11 01:50:56;;;;;;;7.57;2.10;;;3.70;99.90;;;;;;5071255;28;20020;-78
2022/04/11 01:53:22;;;;;;;7.07;2.03;;;3.70;99.90;;;;;;5077070;28;20108;-76
2022/04/11 01:55:48;;;;;;;7.65;1.85;;;3.60;99.90;;;;;;5058697;28;20123;-79
2022/04/11 01:58:15;;;;;;;5.65;1.83;;;3.60;99.90;;;;;;5092872;28;20183;-77
2022/04/11 02:00:41;;;;;;;7.75;2.33;;;3.60;99.90;;;;;;5038980;28;20033;-75
2022/04/11 02:03:09;;;;;;;9.57;1.98;;;3.60;99.90;;;;;;5054688;28;20094;-78
2022/04/11 02:05:35;;;;;;;7.78;1.77;;;3.60;99.90;;;;;;5039717;28;20492;-77
2022/04/11 02:08:01;;;;;;;6.20;1.70;;;3.60;99.90;;;;;;5037804;28;20115;-77
2022/04/11 02:10:27;;;;;;;7.53;1.80;;;3.60;99.90;;;;;;5074039;28;20082;-77
2022/04/11 02:12:54;;;;;;;4.88;1.83;;;3.60;99.90;;;;;;5052126;28;20089;-77
2022/04/11 02:15:20;;;;;;;5.03;1.85;;;3.60;99.90;;;;;;5055628;28;20051;-78
2022/04/11 02:17:50;;;;;;;4.30;1.80;;;3.50;99.90;;;;;;5055766;28;20040;-77
2022/04/11 02:20:16;;;;;;;4.38;1.73;;;3.50;99.90;;;;;;5071205;28;20040;-78
2022/04/11 02:22:50;;;;;;;6.25;2.00;;;3.50;99.90;;;;;;5040403;28;20032;-79
2022/04/11 02:25:18;;;;;;;8.73;2.50;;;3.50;99.90;;;;;;5092629;28;20028;-78
2022/04/11 02:27:44;;;;;;;8.88;1.80;;;3.50;99.90;;;;;;5053361;28;20043;-78
2022/04/11 02:30:12;;;;;;;7.18;2.10;;;3.50;99.90;;;;;;5086086;28;20005;-77
2022/04/11 02:32:37;;;;;;;6.72;1.83;;;3.50;99.90;;;;;;5064869;28;20036;-78
2022/04/11 02:35:04;;;;;;;7.45;1.92;;;3.50;99.90;;;;;;5056030;28;22075;-79
2022/04/11 02:37:30;;;;;;;5.80;1.90;;;3.50;99.90;;;;;;5068287;28;20100;-78
2022/04/11 02:39:56;;;;;;;5.30;1.95;;;3.40;99.90;;;;;;5039014;28;20075;-78
2022/04/11 02:42:25;;;;;;;6.18;1.70;;;3.40;99.90;;;;;;5090220;28;21644;-78
2022/04/11 02:44:52;;;;;;;6.53;1.65;;;3.50;99.90;;;;;;5053583;28;20039;-78
2022/04/11 02:47:18;;;;;;;4.97;1.52;;;3.50;99.90;;;;;;5058422;28;20025;-77
2022/04/11 02:49:44;;;;;;;4.35;1.60;;;3.50;99.90;;;;;;5031775;28;20128;-77
2022/04/11 02:52:10;;;;;;;6.95;2.30;;;3.50;99.90;;;;;;5088785;28;20536;-78
2022/04/11 02:54:37;;;;;;;7.38;2.10;;;3.60;99.90;;;;;;5073515;28;20044;-78
2022/04/11 02:57:03;;;;;;;10.95;1.92;;;3.50;99.90;;;;;;5052088;28;20103;-80
2022/04/11 02:59:29;;;;;;;5.70;2.00;;;3.50;99.90;;;;;;5057273;28;21607;-78
2022/04/11 03:01:55;;;;;;;5.40;2.20;;;3.50;99.90;;;;;;5074747;28;20032;-79
2022/04/11 03:04:21;;;;;;;10.60;2.05;;;3.40;99.90;;;;;;5041996;28;20097;-80
2022/04/11 03:06:47;;;;;;;8.73;1.92;;;3.50;99.90;;;;;;5068385;28;20052;-79
2022/04/11 03:09:13;;;;;;;7.80;2.40;;;3.40;99.90;;;;;;5071999;28;20122;-80
2022/04/11 03:11:38;;;;;;;7.38;2.25;;;3.40;99.90;;;;;;5032401;28;20488;-78
2022/04/11 03:14:04;;;;;;;6.18;1.98;;;3.40;99.90;;;;;;5040698;28;20039;-79
2022/04/11 03:16:31;;;;;;;9.18;2.38;;;3.40;99.90;;;;;;5060112;28;20037;-79
2022/04/11 03:18:57;;;;;;;6.13;2.25;;;3.50;99.90;;;;;;5063897;28;20028;-77
2022/04/11 03:21:23;;;;;;;8.75;2.60;;;3.50;99.90;;;;;;5088866;28;20051;-77
2022/04/11 03:23:49;;;;;;;9.10;2.75;;;3.40;99.90;;;;;;5071645;28;20036;-78
2022/04/11 03:26:14;;;;;;;5.25;2.30;;;3.30;99.90;;;;;;5070289;28;20029;-75
2022/04/11 03:28:40;;;;;;;8.38;2.72;;;3.30;99.90;;;;;;5084614;28;20024;-74
2022/04/11 03:31:06;;;;;;;7.65;2.28;;;3.20;99.90;;;;;;5102628;28;20041;-76
2022/04/11 03:33:32;;;;;;;6.68;2.28;;;3.20;99.90;;;;;;5090212;28;20032;-77
2022/04/11 03:35:57;;;;;;;7.82;2.75;;;3.20;99.90;;;;;;5103338;28;20079;-77
2022/04/11 03:38:23;;;;;;;6.10;2.30;;;3.20;99.90;;;;;;5079488;28;20033;-76
2022/04/11 03:40:48;;;;;;;6.43;2.53;;;3.10;99.90;;;;;;5079588;28;20012;-77
2022/04/11 03:43:14;;;;;;;5.88;1.98;;;3.20;99.90;;;;;;5078359;28;20024;-79
2022/04/11 03:45:40;;;;;;;5.57;2.95;;;3.20;99.90;;;;;;5061161;28;20036;-78
2022/04/11 03:48:05;;;;;;;5.82;2.50;;;3.10;99.90;;;;;;5040760;28;20125;-78
2022/04/11 03:50:31;;;;;;;7.30;2.80;;;3.10;99.90;;;;;;5075156;28;20107;-78
2022/04/11 03:52:57;;;;;;;9.13;2.47;;;3.10;99.90;;;;;;5056491;28;20046;-76
2022/04/11 03:55:23;;;;;;;8.63;2.58;;;3.20;99.90;;;;;;5052552;28;20029;-79
2022/04/11 03:57:49;;;;;;;6.50;2.80;;;3.20;99.90;;;;;;5047190;28;20097;-79
2022/04/11 04:00:16;;;;;;;16.40;4.55;;;3.10;99.90;;;;;;5069201;28;20088;-78
2022/04/11 04:02:43;;;;;;;8.75;3.13;;;3.10;99.90;;;;;;5071990;28;20021;-79
2022/04/11 04:05:09;;;;;;;9.02;2.92;;;3.10;99.90;;;;;;5057822;28;20032;-79
2022/04/11 04:07:36;;;;;;;9.57;3.03;;;3.10;99.90;;;;;;5071740;28;20131;-79
2022/04/11 04:10:03;;;;;;;9.40;3.25;;;3.10;99.90;;;;;;5059526;28;20020;-79
2022/04/11 04:12:29;;;;;;;10.98;3.42;;;3.10;99.90;;;;;;5074639;28;20028;-79
2022/04/11 04:14:55;;;;;;;8.20;2.80;;;3.10;99.90;;;;;;5073767;28;20028;-77
2022/04/11 04:17:20;;;;;;;5.70;2.80;;;3.10;99.90;;;;;;5076957;28;20032;-79
2022/04/11 04:19:46;;;;;;;10.80;2.80;;;3.20;99.90;;;;;;5054722;28;20037;-79
2022/04/11 04:22:12;;;;;;;6.65;2.70;;;3.20;99.90;;;;;;5073568;28;20910;-79
2022/04/11 04:24:37;;;;;;;7.15;2.85;;;3.10;99.90;;;;;;5041163;28;20059;-79
2022/04/11 04:27:06;;;;;;;10.88;3.40;;;3.10;99.90;;;;;;5071349;28;20024;-79
2022/04/11 04:29:32;;;;;;;10.20;3.40;;;3.10;99.90;;;;;;5055492;28;20036;-79
2022/04/11 04:31:57;;;;;;;5.72;2.78;;;3.10;99.90;;;;;;5071730;28;20458;-79
2022/04/11 04:34:25;;;;;;;6.70;3.13;;;3.00;99.90;;;;;;5071752;28;20025;-79
2022/04/11 04:36:52;;;;;;;8.77;3.38;;;3.10;99.90;;;;;;5038089;28;20032;-79
2022/04/11 04:39:17;;;;;;;14.50;3.22;;;3.10;99.90;;;;;;5070491;28;20021;-77
2022/04/11 04:41:43;;;;;;;9.55;3.00;;;3.00;99.90;;;;;;5059650;28;20039;-79
2022/04/11 04:44:09;;;;;;;13.27;3.45;;;3.10;99.90;;;;;;5068198;28;20032;-79
2022/04/11 04:46:35;;;;;;;10.57;3.83;;;3.10;99.90;;;;;;5057281;28;20036;-79
2022/04/11 04:49:02;;;;;;;12.05;3.28;;;3.10;99.90;;;;;;5058481;28;20028;-79
2022/04/11 04:51:28;;;;;;;10.32;4.10;;;3.10;99.90;;;;;;5074506;28;20599;-79
2022/04/11 04:53:54;;;;;;;10.18;3.72;;;3.10;99.90;;;;;;5060118;28;20964;-79
2022/04/11 04:56:20;;;;;;;10.90;4.20;;;3.00;99.90;;;;;;5053344;28;20116;-72
2022/04/11 04:58:46;;;;;;;9.75;3.50;;;3.10;99.90;;;;;;5087532;28;20181;-79
2022/04/11 05:01:15;;;;;;;9.98;3.75;;;3.10;99.90;;;;;;5039344;28;20066;-79
2022/04/11 05:03:41;;;;;;;10.50;4.03;;;3.10;99.90;;;;;;5075636;28;20090;-78
2022/04/11 05:06:10;;;;;;;10.20;3.92;;;3.20;99.90;;;;;;5056099;28;20032;-80
2022/04/11 05:08:35;;;;;;;8.27;4.05;;;3.20;99.90;;;;;;5075319;28;20040;-78
2022/04/11 05:11:01;;;;;;;7.90;3.75;;;3.20;99.90;;;;;;5056594;28;20052;-78
2022/04/11 05:13:27;;;;;;;11.70;4.07;;;3.20;99.90;;;;;;5069043;28;20020;-78
2022/04/11 05:15:53;;;;;;;10.15;3.63;;;3.30;99.90;;;;;;5067429;28;20027;-75
2022/04/11 05:18:19;;;;;;;5.95;3.63;;;3.30;99.90;;;;;;5060309;28;20016;-78
2022/04/11 05:20:44;;;;;;;9.65;4.18;;;3.30;99.90;;;;;;5052385;28;20029;-78
2022/04/11 05:23:10;;;;;;;7.82;4.40;;;3.40;99.90;;;;;;5054388;28;20081;-78
2022/04/11 05:25:36;;;;;;;10.23;3.97;;;3.40;99.90;;;;;;5069074;28;20066;-79
2022/04/11 05:28:02;;;;;;;8.32;3.47;;;3.40;99.90;;;;;;5070932;28;20073;-77
2022/04/11 05:30:33;;;;;;;11.38;4.20;;;3.40;99.90;;;;;;5073265;28;20025;-78
2022/04/11 05:33:00;;;;;;;10.85;3.28;;;3.50;99.90;;;;;;5063210;28;20078;-76
2022/04/11 05:35:26;;;;;;;6.88;3.65;;;3.50;99.90;;;;;;5052561;28;20059;-78
2022/04/11 05:37:52;;;;;;;10.90;4.15;;;3.60;99.90;;;;;;5075344;28;20039;-78
2022/04/11 05:40:18;;;;;;;7.75;3.45;;;3.60;99.90;;;;;;5087735;28;20028;-77
2022/04/11 05:42:44;;;;;;;7.47;3.75;;;3.70;99.90;;;;;;5065249;28;20058;-77
2022/04/11 05:45:10;;;;;;;5.60;3.08;;;3.70;99.90;;;;;;5071537;28;20032;-77
2022/04/11 05:47:36;;;;;;;9.18;3.75;;;3.80;99.90;;;;;;5055983;28;20129;-79
2022/04/11 05:50:02;;;;;;;7.88;4.05;;;3.80;99.90;;;;;;5051920;28;20048;-78
2022/04/11 05:52:27;;;;;;;8.13;3.58;;;3.90;99.90;;;;;;5090021;28;20025;-76
2022/04/11 05:54:53;;;;;;;7.50;3.38;;;4.00;99.90;;;;;;5052685;28;20952;-78
2022/04/11 05:57:19;;;;;;;7.40;3.60;;;4.10;99.90;;;;;;5056876;28;20050;-79
2022/04/11 05:59:44;;;;;;;7.78;3.15;;;4.10;99.90;;;;;;5051349;28;20511;-78
2022/04/11 06:02:11;;;;;;;8.68;3.60;;;4.20;99.90;;;;;;5041325;28;20059;-77
2022/04/11 06:04:37;;;;;;;5.70;3.47;;;4.30;99.90;;;;;;5041374;28;20032;-78
2022/04/11 06:07:04;;;;;;;9.95;3.40;;;4.40;99.90;;;;;;5060689;28;20076;-76
2022/04/11 06:09:30;;;;;;;8.77;3.22;;;4.40;99.90;;;;;;5066665;28;20047;-78
2022/04/11 06:11:57;;;;;;;7.13;2.88;;;4.50;99.90;;;;;;5070098;28;20130;-76
2022/04/11 06:14:22;;;;;;;9.00;3.47;;;4.60;99.90;;;;;;5049356;28;20032;-77
2022/04/11 06:16:48;;;;;;;7.68;3.17;;;4.70;99.90;;;;;;5032319;28;20039;-77
2022/04/11 06:19:14;;;;;;;6.72;3.20;;;4.80;99.90;;;;;;5065965;28;20020;-77
2022/04/11 06:21:40;;;;;;;7.55;3.45;;;4.90;99.90;;;;;;5074701;28;20024;-76
2022/04/11 06:24:06;;;;;;;9.57;3.20;;;4.90;99.90;;;;;;5061499;28;20561;-78
2022/04/11 06:26:32;;;;;;;8.07;3.20;;;4.90;99.90;;;;;;5043608;28;20963;-78
2022/04/11 06:28:57;;;;;;;6.65;3.55;;;4.90;99.90;;;;;;5071674;28;20107;-71
2022/04/11 06:31:23;;;;;;;7.35;3.28;;;5.00;99.90;;;;;;5070379;28;20381;-71
2022/04/11 06:33:50;;;;;;;5.47;3.15;;;5.10;99.90;;;;;;5085626;28;20028;-76
2022/04/11 06:36:15;;;;;;;7.60;3.28;;;5.10;99.90;;;;;;5087892;28;20028;-78
2022/04/11 06:38:43;;;;;;;7.18;3.35;;;5.20;99.90;;;;;;5063113;28;20032;-77
2022/04/11 06:41:08;;;;;;;10.18;3.35;;;5.30;99.90;;;;;;5073727;28;20107;-77
2022/04/11 06:43:34;;;;;;;9.48;3.30;;;5.40;99.90;;;;;;5055228;28;20064;-77
2022/04/11 06:46:00;;;;;;;6.03;2.92;;;5.50;99.90;;;;;;5056489;28;20029;-77
2022/04/11 06:48:26;;;;;;;7.60;3.33;;;5.50;99.90;;;;;;5070674;28;20032;-78
2022/04/11 06:50:52;;;;;;;11.15;4.65;;;5.60;99.90;;;;;;5051962;28;20104;-77
2022/04/11 06:53:19;;;;;;;8.05;3.35;;;5.60;99.90;;;;;;5051042;28;20021;-77
2022/04/11 06:55:47;;;;;;;7.72;3.08;;;5.60;99.90;;;;;;5067783;28;20037;-76
2022/04/11 06:58:17;;;;;;;8.07;3.03;;;5.70;99.90;;;;;;5031898;28;20037;-77
2022/04/11 07:00:45;;;;;;;9.60;3.63;;;5.70;99.90;;;;;;5058633;28;20039;-79
2022/04/11 07:03:11;;;;;;;5.65;2.67;;;5.80;99.90;;;;;;5055729;28;20495;-77
2022/04/11 07:05:40;;;;;;;5.75;2.70;;;5.90;99.90;;;;;;5053419;28;20064;-78
2022/04/11 07:08:06;;;;;;;6.78;3.90;;;5.90;99.90;;;;;;5039977;28;20028;-78
2022/04/11 07:10:33;;;;;;;9.70;3.97;;;5.90;99.90;;;;;;5059021;28;20024;-79
2022/04/11 07:12:59;;;;;;;6.47;2.85;;;6.10;99.90;;;;;;5060084;28;20033;-77
2022/04/11 07:15:25;;;;;;;6.18;3.20;;;6.10;99.90;;;;;;5037017;28;20052;-79
2022/04/11 07:17:51;;;;;;;7.03;3.25;;;6.10;99.90;;;;;;5051760;28;20151;-75
2022/04/11 07:20:17;;;;;;;11.20;3.17;;;6.20;99.90;;;;;;5032930;28;20112;-78
2022/04/11 07:22:43;;;;;;;8.00;3.17;;;6.20;99.90;;;;;;5058345;28;20165;-78
2022/04/11 07:25:10;;;;;;;6.30;2.95;;;6.30;99.90;;;;;;5073510;28;20041;-78
2022/04/11 07:27:36;;;;;;;8.98;3.10;;;6.20;99.90;;;;;;5039925;28;20124;-78
2022/04/11 07:30:03;;;;;;;8.40;2.90;;;6.30;99.90;;;;;;5038463;28;20483;-80
2022/04/11 07:32:29;;;;;;;9.05;2.65;;;6.30;99.90;;;;;;5068766;28;20035;-78
2022/04/11 07:34:57;;;;;;;8.23;3.38;;;6.20;99.90;;;;;;5025806;28;20155;-77
2022/04/11 07:37:25;;;;;;;14.43;3.78;;;6.40;99.90;;;;;;5064903;28;20447;-79
2022/04/11 07:39:52;;;;;;;7.03;3.17;;;6.40;99.90;;;;;;5052336;28;20025;-78
2022/04/11 07:42:17;;;;;;;6.82;2.83;;;6.40;99.90;;;;;;5055004;28;20032;-78
2022/04/11 07:44:44;;;;;;;6.10;3.00;;;6.50;99.90;;;;;;5048291;28;20040;-78
2022/04/11 07:47:10;;;;;;;6.90;2.85;;;6.60;99.90;;;;;;5038459;28;20103;-77
2022/04/11 07:49:35;;;;;;;9.60;3.55;;;6.60;99.90;;;;;;5056400;28;20125;-77
2022/04/11 07:52:01;;;;;;;10.93;3.22;;;6.70;99.90;;;;;;5055116;28;20020;-77
2022/04/11 07:54:27;;;;;;;9.48;2.92;;;6.70;99.90;;;;;;5073117;28;20048;-78
2022/04/11 07:56:52;;;;;;;6.10;3.35;;;6.70;99.90;;;;;;5073595;28;20056;-77
2022/04/11 07:59:19;;;;;;;11.02;3.17;;;6.70;99.90;;;;;;5038804;28;20074;-78
2022/04/11 08:01:45;;;;;;;8.48;2.83;;;7.00;99.90;;;;;;5043861;28;20104;-76
2022/04/11 08:04:11;;;;;;;7.55;2.75;;;7.10;99.90;;;;;;5054066;28;20111;-77
2022/04/11 08:06:36;;;;;;;8.70;2.85;;;7.10;99.90;;;;;;5090382;28;20029;-78
2022/04/11 08:09:03;;;;;;;9.48;3.15;;;7.10;99.90;;;;;;5057626;28;20086;-78
2022/04/11 08:11:29;;;;;;;9.95;3.00;;;7.20;99.90;;;;;;5079300;28;20084;-75
2022/04/11 08:13:54;;;;;;;8.95;2.40;;;7.20;99.90;;;;;;5055513;28;20063;-78
2022/04/11 08:16:20;;;;;;;10.68;3.17;;;7.30;99.90;;;;;;5077393;28;20408;-72
2022/04/11 08:18:46;;;;;;;7.40;2.75;;;7.30;99.90;;;;;;5066238;28;20640;-71
2022/04/11 08:21:12;;;;;;;11.05;3.05;;;7.40;99.90;;;;;;5069405;28;20081;-71
2022/04/11 08:23:37;;;;;;;8.23;2.20;;;7.50;99.90;;;;;;5068993;28;20099;-73
2022/04/11 08:26:03;;;;;;;9.40;3.00;;;7.50;99.90;;;;;;5067788;28;20048;-76
2022/04/11 08:28:29;;;;;;;6.78;2.85;;;7.60;99.90;;;;;;5054262;28;20025;-76
2022/04/11 08:30:54;;;;;;;6.68;2.65;;;7.60;99.90;;;;;;5040080;28;20373;-77
2022/04/11 08:33:20;;;;;;;7.55;2.85;;;7.70;99.90;;;;;;5052408;28;20104;-73
2022/04/11 08:35:46;;;;;;;5.85;2.08;;;7.70;99.90;;;;;;5071061;28;20036;-76
2022/04/11 08:38:12;;;;;;;7.82;1.80;;;7.80;99.90;;;;;;5063689;28;20032;-77
2022/04/11 08:40:38;;;;;;;8.73;2.30;;;7.80;99.90;;;;;;5099725;28;20043;-77
2022/04/11 08:43:05;;;;;;;7.35;2.17;;;8.00;99.90;;;;;;5056459;28;20036;-78
2022/04/11 08:45:31;;;;;;;7.72;2.20;;;8.00;99.90;;;;;;5088458;28;20040;-76
2022/04/11 08:47:57;;;;;;;6.70;2.10;;;8.10;99.90;;;;;;5103229;28;20025;-77
2022/04/11 08:50:24;;;;;;;7.95;2.10;;;8.00;99.90;;;;;;5066592;28;20043;-77
2022/04/11 08:52:51;;;;;;;10.70;1.90;;;8.10;99.90;;;;;;5060965;28;20048;-76
2022/04/11 08:55:18;;;;;;;5.75;1.70;;;8.00;99.90;;;;;;5060513;28;20025;-78
2022/04/11 08:57:44;;;;;;;10.57;1.95;;;8.00;99.90;;;;;;5086804;28;20047;-78
2022/04/11 09:00:16;;;;;;;6.45;1.60;;;7.90;99.90;;;;;;5071076;28;20044;-75
2022/04/11 09:02:43;;;;;;;7.68;1.92;;;7.90;99.90;;;;;;5048493;28;20607;-74
2022/04/11 09:05:11;;;;;;;6.97;2.05;;;8.00;99.90;;;;;;5049660;28;20044;-75
2022/04/11 09:07:53;;;;;;;5.75;1.52;;;8.10;99.90;;;;;;5030317;28;20029;-74
2022/04/11 09:10:24;;;;;;;3.78;1.08;;;8.20;98.40;;;;;;5057398;28;20492;-80
2022/04/11 09:12:55;;;;;;;3.72;1.05;;;8.20;99.90;;;;;;5043402;28;20033;-78
2022/04/11 09:15:25;;;;;;;4.18;1.05;;;8.40;98.10;;;;;;5066106;28;20042;-78
2022/04/11 09:17:52;;;;;;;3.67;1.15;;;8.40;98.40;;;;;;5083786;28;20040;-79
2022/04/11 09:20:41;;;;;;;7.03;1.95;;;8.40;98.60;;;;;;5080372;28;20044;-77
2022/04/11 09:23:20;;;;;;;3.33;1.23;;;8.50;98.40;;;;;;5068196;28;20009;-76
2022/04/11 09:25:46;;;;;;;4.40;1.20;;;8.60;98.30;;;;;;5073796;28;20040;-78
2022/04/11 09:28:12;;;;;;;4.10;1.13;;;8.70;95.60;;;;;;5075927;28;20029;-78
2022/04/11 09:30:40;;;;;;;3.03;1.50;;;8.70;92.50;;;;;;5047946;28;20025;-78
2022/04/11 09:33:08;;;;;;;4.18;1.40;;;8.60;92.70;;;;;;5070397;28;20319;-78
2022/04/11 09:35:40;;;;;;;6.90;1.45;;;8.50;94.10;;;;;;5064593;28;20036;-76
2022/04/11 09:38:17;;;;;;;3.80;1.10;;;8.50;95.10;;;;;;5060554;28;20033;-78
2022/04/11 09:40:50;;;;;;;5.10;1.35;;;8.70;95.20;;;;;;5062852;28;20040;-76
2022/04/11 09:43:30;;;;;;;5.30;1.52;;;8.80;92.80;;;;;;5080970;28;20076;-76
2022/04/11 09:45:59;;;;;;;6.45;1.83;;;8.90;93.10;;;;;;5061701;28;20025;-78
2022/04/11 09:48:29;;;;;;;3.45;1.13;;;8.90;92.10;;;;;;5051443;28;20081;-77
2022/04/11 09:51:00;;;;;;;4.70;1.60;;;8.90;93.70;;;;;;5065525;28;20028;-78
2022/04/11 09:53:34;;;;;;;3.28;1.30;;;9.00;92.60;;;;;;5064401;28;20028;-79
2022/04/11 09:56:08;;;;;;;4.63;1.58;;;8.90;92.10;;;;;;5097718;28;20028;-78
2022/04/11 09:58:36;;;;;;;7.93;1.80;;;8.90;92.10;;;;;;5094366;28;20025;-77
2022/04/11 10:01:03;;;;;;;5.40;1.50;;;8.80;89.40;;;;;;5060693;28;20032;-77
2022/04/11 10:03:30;;;;;;;4.70;1.48;;;8.90;91.80;;;;;;5049374;28;20412;-79
2022/04/11 10:05:57;;;;;;;7.38;1.60;;;9.00;92.40;;;;;;5076280;28;20028;-78
2022/04/11 10:08:25;;;;;;;4.03;1.25;;;9.20;90.50;;;;;;5089447;28;20396;-79
2022/04/11 10:10:51;;;;;;;4.07;1.80;;;9.30;91.20;;;;;;5051583;28;20107;-78
2022/04/11 10:13:18;;;;;;;6.32;1.60;;;9.60;90.80;;;;;;5059060;28;20028;-79
2022/04/11 10:15:49;;;;;;;4.90;1.35;;;9.60;91.60;;;;;;5060551;28;20055;-77
2022/04/11 10:18:27;;;;;;;4.50;1.40;;;9.80;90.50;;;;;;5043154;28;20507;-77
2022/04/11 10:20:58;;;;;;;7.70;2.25;;;9.90;89.60;;;;;;5070326;28;20070;-77
2022/04/11 10:23:48;;;;;;;5.45;1.70;;;9.90;91.20;;;;;;5031194;28;20028;-78
2022/04/11 10:26:16;;;;;;;4.40;1.50;;;9.90;91.30;;;;;;5075643;28;20059;-76
2022/04/11 10:28:51;;;;;;;5.47;1.70;;;9.90;90.30;;;;;;5072219;28;20562;-77
2022/04/11 10:31:17;;;;;;;4.22;1.60;;;9.70;90.30;;;;;;5089150;28;20476;-79
2022/04/11 10:33:44;;;;;;;5.68;1.30;;;9.60;84.20;;;;;;5068400;28;20104;-76
2022/04/11 10:36:35;;;;;;;5.10;1.63;;;9.70;81.90;;;;;;5054435;28;20032;-79
2022/04/11 10:39:13;;;;;;;5.63;1.77;;;9.60;80.00;;;;;;5066484;28;20036;-79
2022/04/11 10:41:57;;;;;;;3.42;1.50;;;9.70;80.50;;;;;;5087286;28;20046;-78
2022/04/11 10:44:33;;;;;;;5.25;1.70;;;9.60;86.10;;;;;;5029299;28;20033;-78
2022/04/11 10:47:17;;;;;;;10.65;1.70;;;9.70;88.50;;;;;;5065364;28;20114;-79
2022/04/11 10:49:48;;;;;;;3.75;1.15;;;9.80;81.10;;;;;;5046242;28;20024;-78
2022/04/11 10:52:32;;;;;;;3.22;1.35;;;10.00;84.90;;;;;;5055941;28;20035;-78
2022/04/11 10:55:09;;;;;;;4.45;1.48;;;10.10;79.20;;;;;;5075374;28;20036;-78
2022/04/11 10:57:40;;;;;;;2.75;1.05;;;10.30;76.40;;;;;;5071827;28;20085;-80
2022/04/11 11:00:10;;;;;;;5.53;1.40;;;10.40;78.20;;;;;;5073624;28;20464;-78
2022/04/11 11:02:54;;;;;;;4.88;1.38;;;10.70;78.90;;;;;;5049997;28;20100;-78
2022/04/11 11:05:27;;;;;;;4.20;1.27;;;10.90;81.50;;;;;;5073057;28;20033;-78
2022/04/11 11:08:13;;;;;;;6.95;1.23;;;11.10;82.40;;;;;;5066827;28;20473;-77
2022/04/11 11:10:59;;;;;;;4.93;1.92;;;11.60;80.70;;;;;;5061835;28;20103;-78
2022/04/11 11:13:41;;;;;;;4.78;1.30;;;12.30;84.80;;;;;;5063523;28;20093;-78
2022/04/11 11:16:07;;;;;;;6.15;1.30;;;13.10;72.00;;;;;;5069947;28;20593;-79
2022/04/11 11:18:48;;;;;;;2.88;1.50;;;12.80;73.30;;;;;;5056809;28;20056;-78
2022/04/11 11:21:21;;;;;;;;;;;12.70;76.10;;;;;;5052283;28;20036;-77
2022/04/11 11:24:02;;;;;;;199.73;116.75;;;14.50;76.30;;;;;;5076541;28;19913;-78
2022/04/11 11:26:37;;;;;;;40.05;23.50;;;17.70;64.40;;;;;;5064384;28;20023;-77
2022/04/11 11:29:13;;;;;;;31.30;20.65;;;20.10;53.20;;;;;;5059164;28;20034;-78
2022/04/11 11:31:39;;;;;;;38.35;28.25;;;22.10;48.40;;;;;;5071603;28;20025;-77
2022/04/11 11:34:10;;;;;;;5.07;1.73;;;23.20;43.10;;;;;;5056464;28;20017;-78
2022/04/11 11:36:37;;;;;;;5.32;1.52;;;23.20;42.30;;;;;;5075140;28;20517;-77
2022/04/11 11:39:20;;;;;;;2.75;1.33;;;23.20;40.00;;;;;;5047540;28;20025;-78
2022/04/11 11:42:18;;;;;;;5.10;1.55;;;23.10;38.30;;;;;;5067182;28;20024;-78
2022/04/11 11:44:50;;;;;;;2.05;1.30;;;22.60;37.40;;;;;;5065490;28;20448;-79
2022/04/11 11:47:25;;;;;;;4.63;1.63;;;21.80;40.80;;;;;;5049922;28;20024;-78
2022/04/11 11:49:50;;;;;;;4.80;1.58;;;21.10;40.50;;;;;;5068394;28;20056;-78
2022/04/11 11:52:18;;;;;;;4.20;1.40;;;20.40;41.90;;;;;;5072865;28;20027;-77
2022/04/11 11:54:49;;;;;;;6.35;1.67;;;19.90;43.20;;;;;;5060470;28;20421;-77
2022/04/11 11:57:22;;;;;;;4.05;1.60;;;20.00;39.00;;;;;;5078346;28;20028;-77
2022/04/11 12:00:04;;;;;;;3.88;1.45;;;19.70;43.20;;;;;;5072236;28;20047;-77
2022/04/11 12:05:21;;;;;;;3.08;1.17;;;18.80;41.20;;;;;;5079481;28;20032;-77
2022/04/11 12:07:49;;;;;;;2.72;1.40;;;18.20;44.60;;;;;;5081509;28;20020;-77
2022/04/11 12:10:15;;;;;;;5.32;1.40;;;18.20;42.70;;;;;;5076935;28;20017;-77
2022/04/11 12:12:44;;;;;;;2.65;1.15;;;17.70;42.20;;;;;;5058434;28;20047;-78
2022/04/11 12:15:10;;;;;;;3.63;1.40;;;17.30;46.70;;;;;;5056704;28;20088;-77
2022/04/11 12:17:49;;;;;;;3.42;1.45;;;17.30;43.60;;;;;;5057313;28;20067;-77
2022/04/11 12:20:19;;;;;;;3.92;1.40;;;17.80;45.60;;;;;;5062801;28;20024;-77
2022/04/11 12:23:12;;;;;;;4.38;1.48;;;17.90;44.60;;;;;;5045583;28;20029;-77
2022/04/11 12:25:42;;;;;;;6.47;1.77;;;18.50;43.90;;;;;;5072457;28;20032;-77
2022/04/11 12:28:18;;;;;;;4.60;1.40;;;18.90;43.10;;;;;;5074976;28;20021;-78
2022/04/11 12:31:06;;;;;;;3.17;1.77;;;19.70;41.90;;;;;;5068225;28;20029;-77
2022/04/11 12:33:38;;;;;;;5.13;1.60;;;19.90;42.40;;;;;;5070631;28;20100;-77
2022/04/11 12:36:11;;;;;;;4.95;1.40;;;20.30;43.30;;;;;;5069694;28;20033;-77
2022/04/11 12:38:59;;;;;;;4.15;1.63;;;20.80;41.60;;;;;;5088386;28;20036;-78
2022/04/11 12:41:38;;;;;;;4.63;1.20;;;20.90;40.20;;;;;;5063115;28;20032;-77
2022/04/11 12:44:07;;;;;;;4.78;1.48;;;20.80;38.50;;;;;;5082770;28;20033;-77
2022/04/11 12:46:34;;;;;;;3.65;1.30;;;20.80;38.90;;;;;;5083084;28;20674;-77
2022/04/11 12:49:01;;;;;;;4.68;1.58;;;21.10;39.90;;;;;;5048973;28;20024;-77
2022/04/11 12:51:28;;;;;;;3.47;1.20;;;20.70;37.10;;;;;;5093222;28;20021;-78
2022/04/11 12:54:04;;;;;;;9.38;2.00;;;19.60;37.60;;;;;;5052105;28;20020;-77
2022/04/11 12:56:45;;;;;;;5.30;1.55;;;18.20;39.70;;;;;;5054089;28;20024;-77
2022/04/11 12:59:11;;;;;;;3.28;1.30;;;17.70;43.40;;;;;;5070999;28;20085;-79
2022/04/11 13:01:51;;;;;;;5.63;1.42;;;18.60;41.30;;;;;;5052741;28;20544;-79
2022/04/11 13:04:17;;;;;;;3.25;1.50;;;19.50;38.10;;;;;;5067272;28;20140;-78